Marco Polo — C6JZ7 — position and weather

sailwx.info

Track history (hours):
 
Tides and Currents Weather Stations Pressure Air Temp Water Temp Dewpoint Dewpoint Depression Visibility Wind Speed Wind Dir Waves Ship Positions

Marco Polo

Operator: Orient Lines

Last reported at 2014-Oct-29 02:31 UTC. Time now 2014-Oct-31 21:40 UTC.
Position N 59°28' E 005°13'.

Type: Passenger vessel. MMSI: 308693000.

Date/timePositionNaut miles runAvg speedWind from/ knotsBaromVisibWave heightAir tempDewpointWater temp
2014-Oct-29 02:31N 59°28' E 005°13'1111.1
2014-Oct-29 01:33N 59°18' E 005°20'1211.9
2014-Oct-29 00:33N 59°06' E 005°20'2 2.1
2014-Oct-28 23:33N 59°04' E 005°21'1313.5
2014-Oct-28 22:34N 58°51' E 005°16'39016.9
2014-Oct-27 23:33N 52°34' E 002°21'1716.0
2014-Oct-27 22:30N 52°18' E 002°11'1516.3
2014-Oct-27 21:33N 52°05' E 001°58'1615.9
2014-Oct-27 20:33N 51°51' E 001°48'9 9.3
2014-Oct-27 19:33N 51°48' E 001°33'1817.5
2014-Oct-27 18:33N 51°35' E 001°15'1817.5
2014-Oct-27 17:33N 51°29' E 000°48'1413.9
2014-Oct-27 16:34N 51°27' E 000°26'3 2.8
2014-Oct-27 15:34N 51°27' E 000°22'0 0.0
2014-Oct-27 14:34N 51°27' E 000°22'0 0.0
2014-Oct-27 13:34N 51°27' E 000°22'0 0.0
2014-Oct-27 12:34N 51°27' E 000°22'0 0.1
2014-Oct-27 11:34N 51°27' E 000°22'0 0.1
2014-Oct-27 10:33N 51°27' E 000°22'0 0.0
2014-Oct-27 09:34N 51°27' E 000°22'0 0.0
2014-Oct-27 08:34N 51°27' E 000°22'5 5.1
2014-Oct-27 07:34N 51°30' E 000°29'1211.8
2014-Oct-27 06:33N 51°29' E 000°48'1414.0
2014-Oct-27 05:33N 51°33' E 001°09'1414.0
2014-Oct-27 04:33N 51°42' E 001°27'1312.9
2014-Oct-27 03:33N 51°52' E 001°40'1110.9
2014-Oct-27 02:33N 51°51' E 001°57'9114.4
2014-Oct-26 20:15N 52°51' E 003°48'5614.3
2014-Oct-26 16:18N 53°32' E 004°53'1114.5
2014-Oct-26 15:33N 53°36' E 005°10'1615.8
2014-Oct-26 14:33N 53°41' E 005°36'1716.7
2014-Oct-26 13:33N 53°46' E 006°03'5215.6
2014-Oct-26 10:11N 53°60' E 007°29'914.9
2014-Oct-26 09:33N 54°02' E 007°44'1914.5
2014-Oct-26 08:16N 54°00' E 008°16'1013.7
2014-Oct-26 07:33N 53°58' E 008°32'1414.2
2014-Oct-26 06:34N 53°50' E 008°52'1010.1
2014-Oct-26 05:33N 53°54' E 009°09'2 2.1
2014-Oct-26 04:27N 53°55' E 009°12'21 6.8
2014-Oct-26 01:21N 54°12' E 009°33'5 4.7
2014-Oct-26 00:19N 54°16' E 009°38'5 7.2
2014-Oct-25 23:33N 54°20' E 009°44'8 7.5
2014-Oct-25 22:33N 54°20' E 009°57'7 6.9
2014-Oct-25 21:33N 54°22' E 010°08'1 0.5
2014-Oct-25 20:33N 54°22' E 010°09'9 8.9
2014-Oct-25 19:33N 54°30' E 010°17'1413.7
2014-Oct-25 18:33N 54°35' E 010°39'2914.6
2014-Oct-25 16:33N 54°31' E 011°29'1615.8
2014-Oct-25 15:33N 54°26' E 011°55'8015.4
2014-Oct-25 10:22N 55°04' E 013°57'1215.5
2014-Oct-25 09:33N 55°12' E 014°13'1615.7
2014-Oct-25 08:33N 55°24' E 014°31'1515.5
2014-Oct-25 07:33N 55°28' E 014°57'1616.3
2014-Oct-25 06:33N 55°29' E 015°26'360 9.6
2014-Oct-23 17:04N 59°39' E 023°29'918.1
2014-Oct-23 16:33N 59°42' E 023°46'92 5.3
2014-Oct-22 23:12N 60°01' E 026°46'10113.2
2014-Oct-22 15:32N 59°57' E 030°07'2 0.6
2014-Oct-22 12:13N 59°57' E 030°12'0 0.0
2014-Oct-21 15:28N 59°57' E 030°12'0 0.0
2014-Oct-21 14:09N 59°57' E 030°12'0 0.0
2014-Oct-21 13:33N 59°57' E 030°12'0 0.0
2014-Oct-21 12:15N 59°57' E 030°12'0 0.0
2014-Oct-21 11:32N 59°57' E 030°12'0 0.0
2014-Oct-21 09:19N 59°57' E 030°12'0 0.0
2014-Oct-21 08:31N 59°57' E 030°12'0 0.0
2014-Oct-21 06:30N 59°57' E 030°12'0 0.0
2014-Oct-21 05:30N 59°57' E 030°12'0 0.0
2014-Oct-21 04:29N 59°57' E 030°12'0 0.0
2014-Oct-21 03:29N 59°57' E 030°12'10411.7
2014-Oct-20 18:33N 59°60' E 026°43'6414.7
2014-Oct-20 14:14N 59°39' E 024°44'912.7
2014-Oct-20 13:33N 59°31' E 024°45'4 3.6
2014-Oct-20 12:32N 59°27' E 024°46'0 0.0
2014-Oct-20 11:29N 59°27' E 024°46'0 0.0
2014-Oct-20 10:31N 59°27' E 024°46'0 0.0
2014-Oct-20 09:31N 59°27' E 024°46'0 0.0
2014-Oct-20 08:27N 59°27' E 024°46'0 0.0
2014-Oct-20 07:33N 59°27' E 024°46'0 0.0
2014-Oct-20 06:32N 59°27' E 024°46'0 0.4
2014-Oct-20 05:33N 59°27' E 024°46'40015.8
2014-Oct-19 04:09N 55°27' E 014°51'1616.2
2014-Oct-19 03:10N 55°16' E 014°30'1016.4
2014-Oct-19 02:33N 55°08' E 014°19'  
Track history (hours):
 
Tides and Currents Weather Stations Pressure Air Temp Water Temp Dewpoint Dewpoint Depression Visibility Wind Speed Wind Dir Waves Ship Positions

Marco Polo

Operator: Orient Lines

Last reported at 2014-Oct-29 02:31 UTC. Time now 2014-Oct-31 21:40 UTC.
Position N 59°28' E 005°13'.

Type: Passenger vessel. MMSI: 308693000.

Date/timePositionNaut miles runAvg speedWind from/ knotsBaromVisibWave heightAir tempDewpointWater temp
2014-Oct-29 02:31N 59°28' E 005°13'1111.1
2014-Oct-29 01:33N 59°18' E 005°20'1211.9
2014-Oct-29 00:33N 59°06' E 005°20'2 2.1
2014-Oct-28 23:33N 59°04' E 005°21'1313.5
2014-Oct-28 22:34N 58°51' E 005°16'39016.9
2014-Oct-27 23:33N 52°34' E 002°21'1716.0
2014-Oct-27 22:30N 52°18' E 002°11'1516.3
2014-Oct-27 21:33N 52°05' E 001°58'1615.9
2014-Oct-27 20:33N 51°51' E 001°48'9 9.3
2014-Oct-27 19:33N 51°48' E 001°33'1817.5
2014-Oct-27 18:33N 51°35' E 001°15'1817.5
2014-Oct-27 17:33N 51°29' E 000°48'1413.9
2014-Oct-27 16:34N 51°27' E 000°26'3 2.8
2014-Oct-27 15:34N 51°27' E 000°22'0 0.0
2014-Oct-27 14:34N 51°27' E 000°22'0 0.0
2014-Oct-27 13:34N 51°27' E 000°22'0 0.0
2014-Oct-27 12:34N 51°27' E 000°22'0 0.1
2014-Oct-27 11:34N 51°27' E 000°22'0 0.1
2014-Oct-27 10:33N 51°27' E 000°22'0 0.0
2014-Oct-27 09:34N 51°27' E 000°22'0 0.0
2014-Oct-27 08:34N 51°27' E 000°22'5 5.1
2014-Oct-27 07:34N 51°30' E 000°29'1211.8
2014-Oct-27 06:33N 51°29' E 000°48'1414.0
2014-Oct-27 05:33N 51°33' E 001°09'1414.0
2014-Oct-27 04:33N 51°42' E 001°27'1312.9
2014-Oct-27 03:33N 51°52' E 001°40'1110.9
2014-Oct-27 02:33N 51°51' E 001°57'9114.4
2014-Oct-26 20:15N 52°51' E 003°48'5614.3
2014-Oct-26 16:18N 53°32' E 004°53'1114.5
2014-Oct-26 15:33N 53°36' E 005°10'1615.8
2014-Oct-26 14:33N 53°41' E 005°36'1716.7
2014-Oct-26 13:33N 53°46' E 006°03'5215.6
2014-Oct-26 10:11N 53°60' E 007°29'914.9
2014-Oct-26 09:33N 54°02' E 007°44'1914.5
2014-Oct-26 08:16N 54°00' E 008°16'1013.7
2014-Oct-26 07:33N 53°58' E 008°32'1414.2
2014-Oct-26 06:34N 53°50' E 008°52'1010.1
2014-Oct-26 05:33N 53°54' E 009°09'2 2.1
2014-Oct-26 04:27N 53°55' E 009°12'21 6.8
2014-Oct-26 01:21N 54°12' E 009°33'5 4.7
2014-Oct-26 00:19N 54°16' E 009°38'5 7.2
2014-Oct-25 23:33N 54°20' E 009°44'8 7.5
2014-Oct-25 22:33N 54°20' E 009°57'7 6.9
2014-Oct-25 21:33N 54°22' E 010°08'1 0.5
2014-Oct-25 20:33N 54°22' E 010°09'9 8.9
2014-Oct-25 19:33N 54°30' E 010°17'1413.7
2014-Oct-25 18:33N 54°35' E 010°39'2914.6
2014-Oct-25 16:33N 54°31' E 011°29'1615.8
2014-Oct-25 15:33N 54°26' E 011°55'8015.4
2014-Oct-25 10:22N 55°04' E 013°57'1215.5
2014-Oct-25 09:33N 55°12' E 014°13'1615.7
2014-Oct-25 08:33N 55°24' E 014°31'1515.5
2014-Oct-25 07:33N 55°28' E 014°57'1616.3
2014-Oct-25 06:33N 55°29' E 015°26'360 9.6
2014-Oct-23 17:04N 59°39' E 023°29'918.1
2014-Oct-23 16:33N 59°42' E 023°46'92 5.3
2014-Oct-22 23:12N 60°01' E 026°46'10113.2
2014-Oct-22 15:32N 59°57' E 030°07'2 0.6
2014-Oct-22 12:13N 59°57' E 030°12'0 0.0
2014-Oct-21 15:28N 59°57' E 030°12'0 0.0
2014-Oct-21 14:09N 59°57' E 030°12'0 0.0
2014-Oct-21 13:33N 59°57' E 030°12'0 0.0
2014-Oct-21 12:15N 59°57' E 030°12'0 0.0
2014-Oct-21 11:32N 59°57' E 030°12'0 0.0
2014-Oct-21 09:19N 59°57' E 030°12'0 0.0
2014-Oct-21 08:31N 59°57' E 030°12'0 0.0
2014-Oct-21 06:30N 59°57' E 030°12'0 0.0
2014-Oct-21 05:30N 59°57' E 030°12'0 0.0
2014-Oct-21 04:29N 59°57' E 030°12'0 0.0
2014-Oct-21 03:29N 59°57' E 030°12'10411.7
2014-Oct-20 18:33N 59°60' E 026°43'6414.7
2014-Oct-20 14:14N 59°39' E 024°44'912.7
2014-Oct-20 13:33N 59°31' E 024°45'4 3.6
2014-Oct-20 12:32N 59°27' E 024°46'0 0.0
2014-Oct-20 11:29N 59°27' E 024°46'0 0.0
2014-Oct-20 10:31N 59°27' E 024°46'0 0.0
2014-Oct-20 09:31N 59°27' E 024°46'0 0.0
2014-Oct-20 08:27N 59°27' E 024°46'0 0.0
2014-Oct-20 07:33N 59°27' E 024°46'0 0.0
2014-Oct-20 06:32N 59°27' E 024°46'0 0.4
2014-Oct-20 05:33N 59°27' E 024°46'40015.8
2014-Oct-19 04:09N 55°27' E 014°51'1616.2
2014-Oct-19 03:10N 55°16' E 014°30'1016.4
2014-Oct-19 02:33N 55°08' E 014°19'  

Dump ship's entire track history